createdAt,value
2022-10-26T00:00:52.504Z,61.40
2022-10-26T00:03:19.922Z,61.53
2022-10-26T00:05:46.844Z,61.91
2022-10-26T00:08:14.082Z,62.44
2022-10-26T00:10:41.140Z,62.59
2022-10-26T00:13:12.485Z,62.88
2022-10-26T00:15:42.958Z,63.06
2022-10-26T00:18:10.266Z,62.93
2022-10-26T00:20:37.212Z,63.32
2022-10-26T00:23:04.084Z,63.19
2022-10-26T00:25:31.077Z,63.53
2022-10-26T00:27:57.972Z,63.28
2022-10-26T00:30:25.302Z,63.42
2022-10-26T00:32:52.314Z,63.70
2022-10-26T00:35:23.913Z,64.25
2022-10-26T00:38:01.560Z,64.54
2022-10-26T00:40:29.425Z,64.53
2022-10-26T00:42:56.898Z,64.73
2022-10-26T00:45:30.037Z,65.21
2022-10-26T00:48:03.289Z,64.82
2022-10-26T00:50:43.756Z,65.28
2022-10-26T00:53:11.960Z,65.58
2022-10-26T00:55:44.949Z,65.59
2022-10-26T00:58:12.693Z,66.13
2022-10-26T01:00:41.023Z,65.99
2022-10-26T01:03:09.590Z,66.51
2022-10-26T01:05:40.258Z,66.63
2022-10-26T01:08:08.913Z,66.67
2022-10-26T01:10:39.077Z,66.90
2022-10-26T01:13:06.709Z,66.78
2022-10-26T01:15:42.831Z,66.94
2022-10-26T01:18:36.077Z,67.39
2022-10-26T01:21:20.865Z,67.42
2022-10-26T01:24:49.055Z,67.88
2022-10-26T01:27:35.993Z,68.16
2022-10-26T01:30:28.184Z,68.38
2022-10-26T01:33:22.539Z,68.59
2022-10-26T01:36:11.943Z,68.57
2022-10-26T01:38:47.736Z,69.11
2022-10-26T01:41:23.455Z,69.05
2022-10-26T01:43:59.823Z,69.48
2022-10-26T01:46:29.431Z,69.93
2022-10-26T01:49:01.876Z,69.92
2022-10-26T01:51:30.436Z,70.52
2022-10-26T01:53:58.554Z,70.51
2022-10-26T01:56:32.232Z,70.96
2022-10-26T01:59:31.233Z,70.76
2022-10-26T02:02:15.980Z,71.05
2022-10-26T02:04:57.473Z,71.24
2022-10-26T02:07:37.879Z,71.73
2022-10-26T02:10:23.025Z,71.84
2022-10-26T02:13:13.419Z,72.16
2022-10-26T02:15:47.601Z,71.94
2022-10-26T02:18:22.786Z,72.10
2022-10-26T02:20:54.205Z,72.12
2022-10-26T02:23:24.998Z,72.42
2022-10-26T02:25:56.922Z,72.50
2022-10-26T02:28:30.746Z,72.60
2022-10-26T02:30:59.824Z,72.78
2022-10-26T02:33:31.780Z,72.52
2022-10-26T02:36:03.157Z,72.64
2022-10-26T02:38:32.955Z,72.75
2022-10-26T02:41:01.320Z,72.73
2022-10-26T02:46:07.280Z,72.96
2022-10-26T02:48:34.338Z,73.04
2022-10-26T02:51:04.005Z,73.54
2022-10-26T02:53:40.581Z,73.99
2022-10-26T02:56:21.671Z,74.48
2022-10-26T02:58:53.438Z,74.52
2022-10-26T03:01:20.755Z,74.59
2022-10-26T03:03:48.516Z,74.84
2022-10-26T03:06:24.698Z,74.88
2022-10-26T03:08:51.692Z,75.10
2022-10-26T03:11:19.262Z,75.15
2022-10-26T03:13:46.329Z,75.09
2022-10-26T03:16:13.178Z,74.97
2022-10-26T03:18:40.171Z,75.35
2022-10-26T03:21:07.128Z,75.66
2022-10-26T03:23:34.078Z,75.49
2022-10-26T03:26:01.087Z,75.58
2022-10-26T03:28:27.978Z,75.58
2022-10-26T03:30:54.912Z,75.49
2022-10-26T03:33:25.608Z,75.74
2022-10-26T03:35:57.045Z,76.00
2022-10-26T03:38:24.397Z,76.38
2022-10-26T03:40:51.400Z,76.91
2022-10-26T03:43:18.343Z,77.05
2022-10-26T03:45:45.189Z,77.05
2022-10-26T03:48:12.274Z,77.17
2022-10-26T03:50:39.370Z,76.88
2022-10-26T03:53:06.671Z,76.69
2022-10-26T03:55:33.552Z,76.98
2022-10-26T03:58:00.406Z,77.08
2022-10-26T04:00:27.453Z,77.20
2022-10-26T04:02:59.929Z,77.54
2022-10-26T04:05:29.329Z,77.67
2022-10-26T04:07:58.094Z,78.01
2022-10-26T04:10:26.407Z,77.85
2022-10-26T04:12:54.442Z,78.04
2022-10-26T04:15:22.013Z,78.29
2022-10-26T04:17:49.205Z,77.80
2022-10-26T04:20:16.244Z,77.83
2022-10-26T04:22:43.124Z,77.95
2022-10-26T04:25:11.482Z,77.66
2022-10-26T04:27:38.411Z,77.85
2022-10-26T04:30:08.351Z,77.82
2022-10-26T04:32:35.202Z,77.87
2022-10-26T04:35:02.050Z,78.05
2022-10-26T04:37:29.061Z,77.98
2022-10-26T04:39:58.800Z,77.73
2022-10-26T04:42:25.731Z,77.47
2022-10-26T04:44:52.631Z,77.75
2022-10-26T04:47:19.516Z,77.51
2022-10-26T04:49:46.411Z,77.83
2022-10-26T04:52:13.530Z,77.58
2022-10-26T04:54:40.353Z,77.85
2022-10-26T04:57:07.461Z,78.00
2022-10-26T04:59:34.305Z,77.86
2022-10-26T05:02:01.284Z,77.80
2022-10-26T05:04:28.300Z,77.94
2022-10-26T05:06:55.162Z,78.08
2022-10-26T05:09:22.070Z,78.15
2022-10-26T05:11:48.968Z,78.07
2022-10-26T05:14:16.084Z,78.05
2022-10-26T05:16:44.643Z,77.86
2022-10-26T05:19:11.563Z,77.45
2022-10-26T05:21:38.757Z,77.62
2022-10-26T05:24:10.039Z,77.09
2022-10-26T05:26:39.216Z,76.84
2022-10-26T05:29:06.070Z,77.08
2022-10-26T05:31:32.929Z,77.00
2022-10-26T05:33:59.866Z,76.94
2022-10-26T05:36:26.763Z,76.51
2022-10-26T05:38:53.641Z,76.20
2022-10-26T05:41:20.895Z,75.74
2022-10-26T05:43:48.700Z,75.56
2022-10-26T05:46:15.641Z,75.23
2022-10-26T05:48:42.745Z,75.23
2022-10-26T05:51:10.789Z,74.38
2022-10-26T05:53:37.739Z,74.25
2022-10-26T05:56:20.111Z,73.59
2022-10-26T05:58:48.360Z,72.86
2022-10-26T06:01:52.355Z,71.85
2022-10-26T06:04:38.899Z,70.74
2022-10-26T06:07:17.772Z,70.22
2022-10-26T06:09:45.662Z,69.11
2022-10-26T06:12:15.498Z,68.08
2022-10-26T06:14:45.738Z,67.56
2022-10-26T06:17:18.673Z,67.01
2022-10-26T06:19:54.628Z,67.18
2022-10-26T06:22:30.592Z,66.36
2022-10-26T06:25:35.106Z,65.85
2022-10-26T06:28:46.074Z,65.83
2022-10-26T06:31:15.619Z,63.91
2022-10-26T06:33:42.551Z,64.20
2022-10-26T06:36:15.180Z,63.11
2022-10-26T06:38:44.785Z,63.05
2022-10-26T06:41:15.670Z,62.92
2022-10-26T06:43:42.842Z,62.76
2022-10-26T06:46:31.924Z,61.71
2022-10-26T06:49:02.618Z,61.39
2022-10-26T06:51:34.834Z,61.61
2022-10-26T06:54:05.386Z,60.35
2022-10-26T06:56:32.877Z,60.47
2022-10-26T06:59:08.578Z,60.24
2022-10-26T07:01:35.755Z,59.99
2022-10-26T07:04:02.693Z,59.53
2022-10-26T07:06:30.088Z,58.85
2022-10-26T07:08:56.987Z,59.10
2022-10-26T07:11:23.972Z,58.65
2022-10-26T07:13:52.003Z,57.79
2022-10-26T07:16:19.115Z,57.08
2022-10-26T07:18:46.204Z,57.60
2022-10-26T07:21:13.090Z,57.40
2022-10-26T07:23:40.064Z,57.62
2022-10-26T07:26:06.927Z,57.34
2022-10-26T07:28:33.900Z,56.57
2022-10-26T07:31:00.774Z,58.05
2022-10-26T07:33:27.666Z,57.98
2022-10-26T07:35:55.557Z,58.04
2022-10-26T07:38:22.417Z,58.06
2022-10-26T07:40:50.629Z,57.13
2022-10-26T07:43:17.618Z,56.77
2022-10-26T07:45:44.592Z,56.02
2022-10-26T07:48:11.574Z,55.91
2022-10-26T07:50:38.502Z,56.34
2022-10-26T07:53:05.412Z,55.82
2022-10-26T07:55:32.338Z,55.51
2022-10-26T07:57:59.653Z,54.74
2022-10-26T08:00:28.904Z,55.67
2022-10-26T08:02:56.653Z,54.78
2022-10-26T08:05:23.666Z,54.16
2022-10-26T08:07:50.827Z,53.67
2022-10-26T08:10:18.064Z,53.39
2022-10-26T08:12:45.065Z,53.83
2022-10-26T08:15:13.067Z,53.74
2022-10-26T08:17:39.957Z,54.10
2022-10-26T08:20:07.477Z,53.36
2022-10-26T08:22:34.405Z,53.28
2022-10-26T08:25:01.331Z,53.75
2022-10-26T08:27:28.242Z,53.87
2022-10-26T08:29:55.230Z,53.71
2022-10-26T08:32:22.126Z,54.38
2022-10-26T08:34:49.026Z,54.13
2022-10-26T08:37:16.078Z,54.28
2022-10-26T08:39:43.016Z,55.30
2022-10-26T08:42:19.555Z,55.33
2022-10-26T08:44:47.690Z,54.43
2022-10-26T08:47:22.917Z,53.34
2022-10-26T08:50:06.619Z,53.39
2022-10-26T08:52:43.415Z,53.90
2022-10-26T08:55:16.374Z,54.35
2022-10-26T08:57:48.229Z,54.72
2022-10-26T09:00:23.586Z,53.23
2022-10-26T09:02:51.649Z,53.06
2022-10-26T09:05:23.375Z,52.49
2022-10-26T09:08:17.755Z,51.64
2022-10-26T09:10:54.003Z,52.26
2022-10-26T09:13:56.311Z,50.83
2022-10-26T09:16:54.268Z,50.94
2022-10-26T09:19:30.727Z,51.28
2022-10-26T09:22:04.702Z,51.10
2022-10-26T09:24:42.624Z,50.62
2022-10-26T09:27:20.362Z,50.13
2022-10-26T09:29:49.509Z,50.11
2022-10-26T09:32:39.333Z,50.67
2022-10-26T09:35:16.179Z,50.17
2022-10-26T09:37:52.045Z,49.64
2022-10-26T09:40:48.393Z,50.82
2022-10-26T09:43:25.005Z,50.60
2022-10-26T10:17:37.372Z,48.05
2022-10-26T10:20:12.839Z,48.12
2022-10-26T10:23:03.768Z,47.30
2022-10-26T10:25:39.989Z,47.13
2022-10-26T10:28:22.700Z,45.93
2022-10-26T10:30:59.528Z,45.52
2022-10-26T10:33:53.292Z,45.89
2022-10-26T10:36:22.703Z,45.23
2022-10-26T10:38:52.468Z,44.79
2022-10-26T10:41:29.300Z,43.90
2022-10-26T10:44:17.699Z,44.65
2022-10-26T10:46:44.948Z,44.80
2022-10-26T10:49:26.229Z,45.57
2022-10-26T10:51:54.068Z,45.25
2022-10-26T10:54:26.937Z,45.66
2022-10-26T10:56:58.025Z,43.47
2022-10-26T10:59:43.468Z,44.41
2022-10-26T11:02:47.286Z,43.40
2022-10-26T11:05:22.060Z,45.42
2022-10-26T11:08:15.876Z,45.87
2022-10-26T11:10:50.295Z,45.85
2022-10-26T11:13:38.560Z,46.54
2022-10-26T11:16:14.096Z,46.88
2022-10-26T11:18:49.077Z,46.31
2022-10-26T11:21:25.314Z,45.35
2022-10-26T11:24:27.532Z,44.08
2022-10-26T11:27:17.383Z,44.54
2022-10-26T11:29:57.458Z,45.39
2022-10-26T11:32:29.006Z,45.67
2022-10-26T11:35:24.645Z,45.33
2022-10-26T11:38:23.777Z,44.82
2022-10-26T11:41:21.648Z,45.39
2022-10-26T11:43:53.514Z,44.66
2022-10-26T11:46:44.458Z,43.63
2022-10-26T11:49:19.801Z,44.22
2022-10-26T11:52:16.989Z,44.29
2022-10-26T11:54:53.557Z,44.28
2022-10-26T11:57:22.175Z,45.09
2022-10-26T11:59:55.119Z,44.96
2022-10-26T12:02:24.368Z,44.14
2022-10-26T12:05:17.683Z,43.33
2022-10-26T12:08:12.311Z,44.12
2022-10-26T12:10:45.718Z,44.47
2022-10-26T12:13:42.245Z,44.13
2022-10-26T12:16:11.890Z,44.06
2022-10-26T12:19:00.546Z,44.98
2022-10-26T12:21:32.303Z,45.47
2022-10-26T12:24:00.238Z,45.14
2022-10-26T12:26:27.086Z,45.30
2022-10-26T12:29:02.860Z,45.13
2022-10-26T12:31:33.102Z,44.46
2022-10-26T12:34:00.859Z,44.37
2022-10-26T12:36:49.300Z,43.31
2022-10-26T12:39:52.732Z,43.25
2022-10-26T12:42:25.663Z,43.77
2022-10-26T12:44:53.525Z,43.23
2022-10-26T12:47:32.426Z,43.22
2022-10-26T12:50:08.335Z,43.56
2022-10-26T12:52:45.255Z,43.75
2022-10-26T12:55:12.074Z,43.32
2022-10-26T12:57:44.947Z,43.54
2022-10-26T13:00:18.536Z,43.40
2022-10-26T13:03:12.717Z,42.73
2022-10-26T13:05:57.536Z,42.71
2022-10-26T13:08:25.098Z,42.65
2022-10-26T13:11:13.294Z,42.73
2022-10-26T13:13:41.849Z,42.80
2022-10-26T13:16:12.491Z,42.78
2022-10-26T13:18:45.374Z,42.81
2022-10-26T13:21:15.484Z,42.76
2022-10-26T13:23:46.768Z,42.57
2022-10-26T13:26:18.836Z,42.96
2022-10-26T13:28:49.700Z,43.00
2022-10-26T13:31:28.715Z,43.08
2022-10-26T13:34:10.383Z,43.16
2022-10-26T13:36:45.696Z,43.24
2022-10-26T13:39:20.950Z,42.80
2022-10-26T13:41:51.460Z,43.16
2022-10-26T13:44:38.939Z,43.37
2022-10-26T13:47:12.416Z,43.28
2022-10-26T13:49:46.477Z,43.48
2022-10-26T13:52:27.627Z,43.67
2022-10-26T13:55:00.149Z,43.84
2022-10-26T13:57:35.471Z,43.49
2022-10-26T14:00:15.638Z,43.63
2022-10-26T14:02:43.759Z,43.42
2022-10-26T14:05:14.506Z,42.98
2022-10-26T14:07:56.700Z,43.34
2022-10-26T14:10:28.703Z,43.17
2022-10-26T14:12:56.341Z,43.27
2022-10-26T14:15:30.275Z,43.59
2022-10-26T14:17:58.844Z,43.84
2022-10-26T14:20:28.105Z,43.69
2022-10-26T14:22:55.150Z,43.75
2022-10-26T14:25:36.260Z,43.86
2022-10-26T14:28:32.616Z,46.15
2022-10-26T14:31:32.807Z,55.57
2022-10-26T14:34:04.205Z,59.41
2022-10-26T14:36:38.978Z,62.54
2022-10-26T14:39:15.381Z,64.41
2022-10-26T14:41:43.057Z,65.25
2022-10-26T14:44:22.598Z,65.76
2022-10-26T14:46:50.757Z,65.85
2022-10-26T14:49:24.276Z,65.88
2022-10-26T14:52:04.176Z,64.97
2022-10-26T14:54:32.335Z,64.73
2022-10-26T14:57:02.666Z,63.81
2022-10-26T14:59:31.749Z,65.29
2022-10-26T15:02:16.495Z,65.43
2022-10-26T15:05:01.789Z,65.44
2022-10-26T15:07:38.705Z,65.47
2022-10-26T15:10:06.325Z,65.70
2022-10-26T15:12:38.367Z,66.07
2022-10-26T15:15:19.684Z,66.27
2022-10-26T15:17:55.661Z,67.60
2022-10-26T15:20:25.760Z,67.26
2022-10-26T15:23:03.683Z,67.23
2022-10-26T15:25:34.380Z,66.85
2022-10-26T15:28:11.756Z,67.41
2022-10-26T15:30:38.926Z,68.37
2022-10-26T15:33:27.832Z,68.43
2022-10-26T15:36:16.229Z,69.02
2022-10-26T15:38:44.831Z,69.07
2022-10-26T15:41:27.552Z,70.17
2022-10-26T15:43:59.536Z,69.95
2022-10-26T15:46:30.829Z,70.25
2022-10-26T15:49:00.741Z,71.08
2022-10-26T15:51:29.454Z,71.20
2022-10-26T15:54:02.644Z,70.45
2022-10-26T15:56:30.721Z,70.50
2022-10-26T15:58:58.528Z,70.88
2022-10-26T16:01:27.746Z,71.10
2022-10-26T16:03:55.221Z,71.06
2022-10-26T16:06:29.087Z,71.32
2022-10-26T16:08:58.840Z,70.52
2022-10-26T16:11:26.091Z,71.40
2022-10-26T16:13:53.032Z,71.47
2022-10-26T16:16:22.239Z,71.71
2022-10-26T16:19:06.147Z,71.66
2022-10-26T16:21:39.099Z,72.55
2022-10-26T16:24:06.420Z,72.15
2022-10-26T16:26:33.463Z,72.79
2022-10-26T16:29:00.313Z,72.96
2022-10-26T16:31:27.208Z,71.95
2022-10-26T16:33:54.060Z,71.83
2022-10-26T16:36:20.983Z,70.98
2022-10-26T16:38:48.290Z,71.48
2022-10-26T16:41:17.454Z,71.50
2022-10-26T16:43:47.006Z,71.75
2022-10-26T16:46:20.134Z,71.22
2022-10-26T16:48:48.806Z,71.93
2022-10-26T16:51:24.659Z,71.59
2022-10-26T16:53:53.315Z,71.73
2022-10-26T16:56:23.307Z,71.18
2022-10-26T16:58:50.615Z,71.56
2022-10-26T17:01:19.696Z,71.22
2022-10-26T17:03:48.803Z,71.31
2022-10-26T17:06:16.540Z,71.99
2022-10-26T17:08:43.915Z,71.99
2022-10-26T17:11:13.400Z,71.83
2022-10-26T17:13:40.947Z,71.88
2022-10-26T17:16:14.394Z,72.19
2022-10-26T17:18:42.585Z,72.29
2022-10-26T17:21:11.178Z,72.73
2022-10-26T17:23:38.470Z,72.40
2022-10-26T17:26:08.099Z,73.22
2022-10-26T17:28:35.790Z,74.14
2022-10-26T17:31:07.941Z,73.44
2022-10-26T17:33:36.426Z,73.39
2022-10-26T17:36:05.355Z,73.33
2022-10-26T17:38:38.236Z,71.98
2022-10-26T17:41:13.412Z,72.14
2022-10-26T17:43:41.856Z,71.85
2022-10-26T17:46:14.658Z,72.51
2022-10-26T17:48:42.049Z,73.25
2022-10-26T17:51:13.185Z,73.69
2022-10-26T17:53:40.245Z,73.08
2022-10-26T17:56:16.732Z,72.20
2022-10-26T17:58:43.553Z,72.03
2022-10-26T18:01:12.879Z,73.07
2022-10-26T18:03:41.560Z,73.57
2022-10-26T18:06:09.321Z,74.04
2022-10-26T18:08:37.944Z,74.29
2022-10-26T18:11:06.375Z,74.81
2022-10-26T18:13:34.193Z,74.72
2022-10-26T18:16:04.369Z,73.55
2022-10-26T18:18:31.484Z,73.98
2022-10-26T18:21:10.029Z,74.15
2022-10-26T18:23:38.336Z,74.14
2022-10-26T18:26:11.465Z,74.39
2022-10-26T18:28:41.429Z,73.64
2022-10-26T18:31:11.319Z,73.15
2022-10-26T18:33:38.499Z,72.89
2022-10-26T18:36:06.979Z,73.37
2022-10-26T18:38:34.616Z,73.17
2022-10-26T18:41:02.211Z,73.33
2022-10-26T18:43:29.429Z,72.99
2022-10-26T18:46:07.800Z,72.66
2022-10-26T18:48:35.002Z,72.95
2022-10-26T18:51:03.548Z,72.79
2022-10-26T18:53:33.019Z,72.57
2022-10-26T18:56:02.068Z,72.68
2022-10-26T18:58:31.042Z,72.38
2022-10-26T19:01:12.304Z,71.87
2022-10-26T19:03:40.263Z,71.96
2022-10-26T19:06:08.871Z,72.04
2022-10-26T19:08:35.917Z,71.46
2022-10-26T19:11:04.505Z,71.21
2022-10-26T19:13:32.055Z,70.91
2022-10-26T19:16:04.051Z,70.80
2022-10-26T19:18:33.158Z,70.44
2022-10-26T19:21:12.022Z,69.86
2022-10-26T19:23:49.985Z,70.20
2022-10-26T19:26:19.766Z,70.37
2022-10-26T19:28:47.694Z,70.46
2022-10-26T19:31:15.158Z,69.75
2022-10-26T19:33:42.189Z,69.88
2022-10-26T19:36:12.471Z,69.66
2022-10-26T19:38:39.700Z,69.69
2022-10-26T19:41:09.993Z,69.32
2022-10-26T19:43:37.340Z,68.99
2022-10-26T19:46:15.835Z,68.13
2022-10-26T19:48:47.932Z,68.42
2022-10-26T19:51:14.910Z,68.38
2022-10-26T19:53:41.840Z,68.63
2022-10-26T19:56:13.560Z,69.13
2022-10-26T19:58:42.119Z,68.72
2022-10-26T20:01:11.680Z,68.39
2022-10-26T20:03:38.636Z,68.36
2022-10-26T20:06:13.082Z,70.16
2022-10-26T20:08:42.411Z,69.07
2022-10-26T20:11:14.652Z,69.17
2022-10-26T20:13:44.429Z,69.99
2022-10-26T20:16:12.276Z,70.36
2022-10-26T20:18:44.007Z,70.26
2022-10-26T20:21:15.419Z,70.03
2022-10-26T20:23:42.893Z,69.59
2022-10-26T20:26:11.732Z,70.17
2022-10-26T20:28:45.726Z,70.18
2022-10-26T20:31:13.453Z,69.99
2022-10-26T20:33:40.330Z,69.46
2022-10-26T20:36:07.589Z,69.30
2022-10-26T20:38:34.951Z,69.14
2022-10-26T20:41:06.109Z,68.51
2022-10-26T20:43:39.413Z,68.36
2022-10-26T20:46:10.130Z,68.05
2022-10-26T20:48:38.859Z,68.16
2022-10-26T20:51:19.669Z,68.35
2022-10-26T20:54:14.285Z,67.86
2022-10-26T20:56:42.182Z,67.81
2022-10-26T20:59:26.472Z,67.43
2022-10-26T21:01:53.490Z,67.54
2022-10-26T21:04:20.451Z,67.54
2022-10-26T21:06:47.301Z,67.44
2022-10-26T21:09:14.235Z,66.86
2022-10-26T21:11:41.331Z,66.88
2022-10-26T21:14:08.335Z,67.19
2022-10-26T21:16:35.266Z,66.73
2022-10-26T21:19:05.030Z,67.12
2022-10-26T21:21:32.093Z,67.12
2022-10-26T21:23:58.912Z,66.95
2022-10-26T21:26:25.948Z,66.84
2022-10-26T21:28:52.782Z,67.09
2022-10-26T21:31:21.338Z,67.86
2022-10-26T21:33:48.335Z,69.61
2022-10-26T21:36:15.812Z,69.89
2022-10-26T21:38:44.967Z,70.02
2022-10-26T21:41:17.252Z,69.89
2022-10-26T21:43:46.549Z,67.55
2022-10-26T21:46:14.225Z,67.93
2022-10-26T21:48:41.390Z,69.87
2022-10-26T21:51:11.803Z,70.74
2022-10-26T21:53:39.104Z,69.88
2022-10-26T21:56:25.285Z,68.54
2022-10-26T21:58:52.289Z,69.41
2022-10-26T22:01:21.821Z,69.41
2022-10-26T22:03:49.642Z,71.42
2022-10-26T22:06:21.417Z,70.07
2022-10-26T22:08:48.861Z,69.26
2022-10-26T22:11:18.490Z,69.70
2022-10-26T22:13:47.245Z,70.82
2022-10-26T22:16:17.127Z,71.56
2022-10-26T22:18:45.421Z,71.48
2022-10-26T22:21:14.090Z,72.39
2022-10-26T22:23:42.678Z,73.28
2022-10-26T22:26:12.808Z,73.53
2022-10-26T22:28:42.843Z,74.00
2022-10-26T22:31:22.446Z,72.34
2022-10-26T22:33:53.442Z,71.19
2022-10-26T22:36:20.798Z,70.61
2022-10-26T22:38:48.962Z,70.28
2022-10-26T22:41:16.693Z,70.79
2022-10-26T22:43:43.611Z,70.57
2022-10-26T22:46:16.500Z,68.87
2022-10-26T22:48:46.368Z,67.95
2022-10-26T22:51:15.876Z,67.44
2022-10-26T22:53:43.217Z,68.47
2022-10-26T22:56:12.299Z,69.88
2022-10-26T22:58:40.063Z,70.30
2022-10-26T23:01:10.777Z,70.93
2022-10-26T23:03:37.918Z,69.96
2022-10-26T23:06:09.190Z,70.45
2022-10-26T23:08:36.198Z,70.32
2022-10-26T23:11:07.112Z,69.37
2022-10-26T23:13:34.372Z,69.54
2022-10-26T23:16:09.337Z,69.46
2022-10-26T23:18:36.511Z,69.39
2022-10-26T23:21:04.664Z,69.93
2022-10-26T23:23:31.913Z,69.79
2022-10-26T23:26:03.450Z,70.05
2022-10-26T23:28:30.403Z,70.43
2022-10-26T23:30:57.543Z,70.22
2022-10-26T23:33:24.404Z,70.84
2022-10-26T23:35:52.017Z,70.50
2022-10-26T23:38:20.113Z,71.33
2022-10-26T23:41:07.113Z,71.55
2022-10-26T23:43:36.434Z,71.31
2022-10-26T23:46:03.859Z,70.41
2022-10-26T23:48:30.778Z,69.49
2022-10-26T23:50:57.966Z,69.52
2022-10-26T23:53:27.356Z,69.10
2022-10-26T23:55:54.302Z,68.86
2022-10-26T23:58:21.274Z,68.11
